createdAt,value
2022-11-29T00:01:18.218Z,254.65
2022-11-29T00:03:48.149Z,260.50
2022-11-29T00:06:16.478Z,284.80
2022-11-29T00:08:44.071Z,333.05
2022-11-29T00:11:12.652Z,228.18
2022-11-29T00:13:40.092Z,275.42
2022-11-29T00:16:08.714Z,420.98
2022-11-29T00:18:36.554Z,205.00
2022-11-29T00:21:07.990Z,283.85
2022-11-29T00:23:36.226Z,247.30
2022-11-29T00:26:06.324Z,319.52
2022-11-29T00:28:37.238Z,370.02
2022-11-29T00:31:20.841Z,356.17
2022-11-29T00:33:49.863Z,280.33
2022-11-29T00:36:17.938Z,257.02
2022-11-29T00:38:48.358Z,364.60
2022-11-29T00:41:15.815Z,266.92
2022-11-29T00:43:43.211Z,391.13
2022-11-29T00:46:10.845Z,316.52
2022-11-29T00:48:38.179Z,365.23
2022-11-29T00:51:06.154Z,318.38
2022-11-29T00:53:33.822Z,278.85
2022-11-29T00:56:01.196Z,295.80
2022-11-29T00:58:28.690Z,290.00
2022-11-29T01:00:56.302Z,340.65
2022-11-29T01:03:23.617Z,160.75
2022-11-29T01:05:51.201Z,253.25
2022-11-29T01:08:19.003Z,216.57
2022-11-29T01:10:46.186Z,252.38
2022-11-29T01:13:14.687Z,308.27
2022-11-29T01:15:42.084Z,311.25
2022-11-29T01:18:09.447Z,216.10
2022-11-29T01:20:36.542Z,176.68
2022-11-29T01:23:03.660Z,176.73
2022-11-29T01:25:32.142Z,145.25
2022-11-29T01:27:59.268Z,205.38
2022-11-29T01:30:26.436Z,163.23
2022-11-29T01:32:53.754Z,245.13
2022-11-29T01:35:20.938Z,203.10
2022-11-29T01:37:48.754Z,112.68
2022-11-29T01:40:18.237Z,118.90
2022-11-29T01:42:45.413Z,94.47
2022-11-29T01:45:26.601Z,105.53
2022-11-29T01:47:56.075Z,102.50
2022-11-29T01:50:23.636Z,90.10
2022-11-29T01:52:51.195Z,92.68
2022-11-29T01:55:18.764Z,88.38
2022-11-29T01:57:46.319Z,62.88
2022-11-29T02:00:15.518Z,73.47
2022-11-29T02:02:45.115Z,62.72
2022-11-29T02:05:14.504Z,41.42
2022-11-29T02:07:44.018Z,52.35
2022-11-29T02:10:11.328Z,57.85
2022-11-29T02:12:41.671Z,58.00
2022-11-29T02:15:15.074Z,56.88
2022-11-29T02:18:08.505Z,58.13
2022-11-29T02:20:56.707Z,82.47
2022-11-29T02:23:52.293Z,94.55
2022-11-29T02:26:19.606Z,64.78
2022-11-29T02:28:49.804Z,75.97
2022-11-29T02:31:52.513Z,87.05
2022-11-29T02:34:35.790Z,127.40
2022-11-29T02:37:25.860Z,86.15
2022-11-29T02:39:59.322Z,90.60
2022-11-29T02:42:55.756Z,131.38
2022-11-29T02:45:40.428Z,118.28
2022-11-29T02:48:29.276Z,118.55
2022-11-29T02:51:04.102Z,141.32
2022-11-29T02:53:50.032Z,117.53
2022-11-29T02:56:36.047Z,163.77
2022-11-29T02:59:06.612Z,120.68
2022-11-29T03:01:49.327Z,139.55
2022-11-29T03:04:28.429Z,160.88
2022-11-29T03:07:14.243Z,116.20
2022-11-29T03:09:42.826Z,237.68
2022-11-29T03:12:22.445Z,154.77
2022-11-29T03:15:05.960Z,168.45
2022-11-29T03:18:02.537Z,103.45
2022-11-29T03:20:29.626Z,217.52
2022-11-29T03:23:15.739Z,114.75
2022-11-29T03:25:46.821Z,130.48
2022-11-29T03:28:14.040Z,187.63
2022-11-29T03:30:44.964Z,151.23
2022-11-29T03:33:25.395Z,195.80
2022-11-29T03:36:04.797Z,225.55
2022-11-29T03:38:38.005Z,189.90
2022-11-29T03:41:13.806Z,220.30
2022-11-29T03:43:46.881Z,192.02
2022-11-29T03:46:22.226Z,204.18
2022-11-29T03:48:52.621Z,157.77
2022-11-29T03:51:23.953Z,192.23
2022-11-29T03:53:54.009Z,174.43
2022-11-29T03:56:43.395Z,141.10
2022-11-29T03:59:32.004Z,231.90
2022-11-29T04:02:18.148Z,189.85
2022-11-29T04:04:45.575Z,195.52
2022-11-29T04:07:22.348Z,195.23
2022-11-29T04:10:04.518Z,163.77
2022-11-29T04:12:50.935Z,248.48
2022-11-29T04:15:18.494Z,214.52
2022-11-29T04:18:03.232Z,241.15
2022-11-29T04:20:40.416Z,216.35
2022-11-29T04:23:15.888Z,270.88
2022-11-29T04:26:17.191Z,213.82
2022-11-29T04:29:05.534Z,222.18
2022-11-29T04:31:59.693Z,166.88
2022-11-29T04:34:59.583Z,245.32
2022-11-29T04:37:48.071Z,214.10
2022-11-29T04:40:21.538Z,130.90
2022-11-29T04:43:08.033Z,183.65
2022-11-29T04:45:54.214Z,190.75
2022-11-29T04:48:31.812Z,197.77
2022-11-29T04:51:15.258Z,144.80
2022-11-29T04:53:54.346Z,156.13
2022-11-29T04:56:30.032Z,187.38
2022-11-29T04:58:57.311Z,179.57
2022-11-29T05:01:44.245Z,213.18
2022-11-29T05:04:11.409Z,163.37
2022-11-29T05:06:44.641Z,181.32
2022-11-29T05:09:17.580Z,268.27
2022-11-29T05:11:56.395Z,204.13
2022-11-29T05:14:45.196Z,247.15
2022-11-29T05:17:26.739Z,239.33
2022-11-29T05:19:54.303Z,134.75
2022-11-29T05:22:21.640Z,166.82
2022-11-29T05:25:08.213Z,255.07
2022-11-29T05:27:38.637Z,166.38
2022-11-29T05:30:16.747Z,175.68
2022-11-29T05:32:49.323Z,152.93
2022-11-29T05:35:40.227Z,208.15
2022-11-29T05:38:33.041Z,236.70
2022-11-29T05:41:07.187Z,265.08
2022-11-29T05:43:40.482Z,274.73
2022-11-29T05:46:34.020Z,244.90
2022-11-29T05:49:19.845Z,211.05
2022-11-29T05:52:05.760Z,269.88
2022-11-29T05:54:32.874Z,167.02
2022-11-29T05:57:27.782Z,252.87
2022-11-29T05:59:56.727Z,185.52
2022-11-29T06:02:24.063Z,133.93
2022-11-29T06:05:13.207Z,115.80
2022-11-29T06:07:58.699Z,241.90
2022-11-29T06:10:29.023Z,118.93
2022-11-29T06:13:14.577Z,136.05
2022-11-29T06:15:57.558Z,217.93
2022-11-29T06:18:37.334Z,244.38
2022-11-29T06:21:22.545Z,150.95
2022-11-29T06:24:21.807Z,258.13
2022-11-29T06:27:18.271Z,185.63
2022-11-29T06:29:48.869Z,210.95
2022-11-29T06:32:19.298Z,168.77
2022-11-29T06:34:53.314Z,252.40
2022-11-29T06:37:49.435Z,224.20
2022-11-29T06:40:17.097Z,233.55
2022-11-29T06:42:44.771Z,191.48
2022-11-29T06:45:13.765Z,162.75
2022-11-29T06:47:53.701Z,208.95
2022-11-29T06:50:28.922Z,142.23
2022-11-29T06:53:02.459Z,183.52
2022-11-29T06:55:50.785Z,173.93
2022-11-29T06:58:24.198Z,179.77
2022-11-29T07:00:55.601Z,205.43
2022-11-29T07:03:22.755Z,180.63
2022-11-29T07:05:50.072Z,207.05
2022-11-29T07:08:19.047Z,158.23
2022-11-29T07:10:49.533Z,155.35
2022-11-29T07:13:17.990Z,161.27
2022-11-29T07:16:04.179Z,156.05
2022-11-29T07:18:31.334Z,161.68
2022-11-29T07:21:10.528Z,200.48
2022-11-29T07:26:59.409Z,138.75
2022-11-29T07:29:39.361Z,84.45
2022-11-29T07:32:11.016Z,151.68
2022-11-29T07:34:56.189Z,119.38
2022-11-29T07:37:42.540Z,123.38
2022-11-29T07:40:12.962Z,135.45
2022-11-29T07:42:40.438Z,157.60
2022-11-29T07:45:31.819Z,139.77
2022-11-29T07:48:00.476Z,128.93
2022-11-29T07:50:31.579Z,178.10
2022-11-29T07:52:58.835Z,141.80
2022-11-29T07:55:26.914Z,112.60
2022-11-29T07:57:54.534Z,100.50
2022-11-29T08:00:22.196Z,113.90
2022-11-29T08:02:50.025Z,95.13
2022-11-29T08:05:17.297Z,98.72
2022-11-29T08:07:44.616Z,83.38
2022-11-29T08:10:13.541Z,105.70
2022-11-29T08:12:45.083Z,116.22
2022-11-29T08:15:12.685Z,138.88
2022-11-29T08:17:40.815Z,91.05
2022-11-29T08:20:08.859Z,104.18
2022-11-29T08:22:39.539Z,82.72
2022-11-29T08:25:07.900Z,75.68
2022-11-29T08:27:35.257Z,76.20
2022-11-29T08:30:02.523Z,67.65
2022-11-29T08:32:29.922Z,71.32
2022-11-29T08:34:57.231Z,73.57
2022-11-29T08:37:24.438Z,104.57
2022-11-29T08:39:51.833Z,77.22
2022-11-29T08:42:24.299Z,65.75
2022-11-29T08:47:36.014Z,71.97
2022-11-29T08:50:05.002Z,81.47
2022-11-29T08:52:52.449Z,79.97
2022-11-29T08:55:20.620Z,86.82
2022-11-29T08:57:48.288Z,79.88
2022-11-29T09:00:16.217Z,80.15
2022-11-29T09:02:43.858Z,98.35
2022-11-29T09:05:11.699Z,70.90
2022-11-29T09:07:39.435Z,67.38
2022-11-29T09:10:08.493Z,91.38
2022-11-29T09:12:36.906Z,75.13
2022-11-29T09:15:09.046Z,94.22
2022-11-29T09:17:36.207Z,107.25
2022-11-29T09:20:03.919Z,107.32
2022-11-29T09:22:30.976Z,84.83
2022-11-29T09:24:58.065Z,90.68
2022-11-29T09:27:25.243Z,80.57
2022-11-29T09:29:52.571Z,53.45
2022-11-29T09:32:19.687Z,84.97
2022-11-29T09:34:47.133Z,103.07
2022-11-29T09:37:14.499Z,76.95
2022-11-29T09:39:41.982Z,79.38
2022-11-29T09:42:35.546Z,93.35
2022-11-29T09:45:14.032Z,80.15
2022-11-29T09:48:00.257Z,89.10
2022-11-29T09:50:43.541Z,75.88
2022-11-29T09:53:13.782Z,79.10
2022-11-29T09:56:01.162Z,86.03
2022-11-29T09:58:30.872Z,61.78
2022-11-29T10:01:00.428Z,51.27
2022-11-29T10:03:32.515Z,69.35
2022-11-29T10:06:02.455Z,47.53
2022-11-29T10:08:47.297Z,47.50
2022-11-29T10:11:32.979Z,57.67
2022-11-29T10:14:15.886Z,56.50
2022-11-29T10:16:50.714Z,52.10
2022-11-29T10:19:36.924Z,53.97
2022-11-29T10:22:15.445Z,61.60
2022-11-29T10:24:45.512Z,55.00
2022-11-29T10:27:19.880Z,54.43
2022-11-29T10:29:56.471Z,49.67
2022-11-29T10:32:25.799Z,54.58
2022-11-29T10:34:52.912Z,55.83
2022-11-29T10:37:21.244Z,41.10
2022-11-29T10:39:50.338Z,40.77
2022-11-29T10:42:37.869Z,47.20
2022-11-29T10:45:06.278Z,50.90
2022-11-29T10:47:33.771Z,49.47
2022-11-29T10:50:01.509Z,41.30
2022-11-29T10:52:28.977Z,40.97
2022-11-29T10:54:57.489Z,47.22
2022-11-29T10:57:24.997Z,35.40
2022-11-29T11:00:04.634Z,38.60
2022-11-29T11:02:32.728Z,44.00
2022-11-29T11:05:00.204Z,41.60
2022-11-29T11:07:38.070Z,43.67
2022-11-29T11:10:45.944Z,39.97
2022-11-29T11:13:22.374Z,44.20
2022-11-29T11:15:52.065Z,42.47
2022-11-29T11:18:32.036Z,44.03
2022-11-29T11:21:05.070Z,34.33
2022-11-29T11:23:42.788Z,37.85
2022-11-29T11:26:12.220Z,43.58
2022-11-29T11:29:00.114Z,42.40
2022-11-29T11:31:30.749Z,38.00
2022-11-29T11:33:58.513Z,40.30
2022-11-29T11:36:29.011Z,36.92
2022-11-29T11:39:00.296Z,39.03
2022-11-29T11:41:48.703Z,34.58
2022-11-29T11:44:46.368Z,35.90
2022-11-29T11:47:19.777Z,33.13
2022-11-29T11:49:54.260Z,35.80
2022-11-29T11:52:23.419Z,32.53
2022-11-29T11:55:14.162Z,33.88
2022-11-29T11:57:41.561Z,34.37
2022-11-29T12:00:55.563Z,34.15
2022-11-29T12:03:24.138Z,36.50
2022-11-29T12:05:52.597Z,34.70
2022-11-29T12:08:20.605Z,31.33
2022-11-29T12:10:49.362Z,35.27
2022-11-29T12:13:20.851Z,34.92
2022-11-29T12:15:49.937Z,37.05
2022-11-29T12:18:25.441Z,36.17
2022-11-29T12:21:13.684Z,34.78
2022-11-29T12:23:45.142Z,30.87
2022-11-29T12:26:48.937Z,34.15
2022-11-29T12:29:15.890Z,28.77
2022-11-29T12:32:05.343Z,31.20
2022-11-29T12:34:47.845Z,27.50
2022-11-29T12:37:27.911Z,30.27
2022-11-29T12:39:58.586Z,25.52
2022-11-29T12:42:44.240Z,33.08
2022-11-29T12:45:27.056Z,29.88
2022-11-29T12:47:54.608Z,35.47
2022-11-29T12:50:28.865Z,34.03
2022-11-29T12:53:15.229Z,28.30
2022-11-29T12:55:42.848Z,30.10
2022-11-29T12:58:27.950Z,28.25
2022-11-29T13:00:54.969Z,24.50
2022-11-29T13:03:29.527Z,29.87
2022-11-29T13:06:03.710Z,26.92
2022-11-29T13:08:49.939Z,25.30
2022-11-29T13:11:22.694Z,30.05
2022-11-29T13:14:03.837Z,28.45
2022-11-29T13:16:57.172Z,27.00
2022-11-29T13:19:45.922Z,25.42
2022-11-29T13:22:27.813Z,29.13
2022-11-29T13:25:07.078Z,24.13
2022-11-29T13:27:36.898Z,30.35
2022-11-29T13:30:05.534Z,24.00
2022-11-29T13:32:32.990Z,25.13
2022-11-29T13:35:05.897Z,22.90
2022-11-29T13:37:39.438Z,21.55
2022-11-29T13:40:06.681Z,23.40
2022-11-29T13:42:45.303Z,29.60
2022-11-29T13:45:19.952Z,25.63
2022-11-29T13:47:58.690Z,24.00
2022-11-29T13:50:40.428Z,23.50
2022-11-29T13:53:24.127Z,27.20
2022-11-29T13:56:02.536Z,28.53
2022-11-29T13:58:41.689Z,27.20
2022-11-29T14:01:10.943Z,27.65
2022-11-29T14:03:38.541Z,25.10
2022-11-29T14:06:16.726Z,25.48
2022-11-29T14:11:36.033Z,25.05
2022-11-29T14:14:12.680Z,24.10
2022-11-29T14:16:42.970Z,25.80
2022-11-29T14:19:10.490Z,26.48
2022-11-29T14:21:57.039Z,25.20
2022-11-29T14:24:36.513Z,25.33
2022-11-29T14:27:10.046Z,25.67
2022-11-29T14:29:49.697Z,26.20
2022-11-29T14:32:30.827Z,30.60
2022-11-29T14:35:13.631Z,28.37
2022-11-29T14:37:41.346Z,26.27
2022-11-29T14:40:34.492Z,27.63
2022-11-29T14:43:02.983Z,27.42
2022-11-29T14:45:32.436Z,22.60
2022-11-29T14:47:59.993Z,26.57
2022-11-29T14:50:32.263Z,23.88
2022-11-29T14:53:04.575Z,28.08
2022-11-29T14:55:33.525Z,27.48
2022-11-29T14:58:09.311Z,28.05
2022-11-29T15:00:45.680Z,27.27
2022-11-29T15:03:15.145Z,30.98
2022-11-29T15:05:52.720Z,29.75
2022-11-29T15:08:38.833Z,27.75
2022-11-29T15:11:12.991Z,27.50
2022-11-29T15:13:45.902Z,29.30
2022-11-29T15:16:25.915Z,27.42
2022-11-29T15:19:04.978Z,32.25
2022-11-29T15:21:41.442Z,34.80
2022-11-29T15:24:16.410Z,37.88
2022-11-29T15:27:00.454Z,33.50
2022-11-29T15:29:31.433Z,30.98
2022-11-29T15:32:00.475Z,30.02
2022-11-29T15:34:35.942Z,26.23
2022-11-29T15:37:03.581Z,29.23
2022-11-29T15:39:31.041Z,29.37
2022-11-29T15:42:09.352Z,27.30
2022-11-29T15:44:36.693Z,25.92
2022-11-29T15:47:17.833Z,34.97
2022-11-29T15:49:45.226Z,31.35
2022-11-29T15:52:20.222Z,29.15
2022-11-29T15:54:51.107Z,39.15
2022-11-29T15:57:21.329Z,35.40
2022-11-29T16:00:00.225Z,40.55
2022-11-29T16:02:31.971Z,35.00
2022-11-29T16:08:01.722Z,28.58
2022-11-29T16:10:49.417Z,33.38
2022-11-29T16:13:32.965Z,28.58
2022-11-29T16:16:21.301Z,37.25
2022-11-29T16:18:51.655Z,39.30
2022-11-29T16:21:24.107Z,33.15
2022-11-29T16:23:51.561Z,42.33
2022-11-29T16:26:26.502Z,40.33
2022-11-29T16:29:19.616Z,38.63
2022-11-29T16:31:47.501Z,43.20
2022-11-29T16:34:27.733Z,35.92
2022-11-29T16:37:05.536Z,38.50
2022-11-29T16:39:34.271Z,43.97
2022-11-29T16:42:09.602Z,114.30
2022-11-29T16:44:36.989Z,172.70
2022-11-29T16:47:19.891Z,201.25
2022-11-29T16:49:50.723Z,192.82
2022-11-29T16:52:28.304Z,150.77
2022-11-29T16:54:55.357Z,233.25
2022-11-29T16:57:22.974Z,197.80
2022-11-29T16:59:50.562Z,174.75
2022-11-29T17:02:18.403Z,182.50
2022-11-29T17:04:45.939Z,173.70
2022-11-29T17:07:15.891Z,183.52
2022-11-29T17:09:43.166Z,192.40
2022-11-29T17:12:12.981Z,151.63
2022-11-29T17:14:40.639Z,166.32
2022-11-29T17:17:08.200Z,122.57
2022-11-29T17:19:35.758Z,114.43
2022-11-29T17:22:03.321Z,139.37
2022-11-29T17:24:31.040Z,134.52
2022-11-29T17:26:58.540Z,120.45
2022-11-29T17:29:25.981Z,115.20
2022-11-29T17:31:53.958Z,143.07
2022-11-29T17:34:21.639Z,108.67
2022-11-29T17:36:49.264Z,112.57
2022-11-29T17:39:21.155Z,97.18
2022-11-29T17:41:51.445Z,108.07
2022-11-29T17:44:27.037Z,120.82
2022-11-29T17:46:54.655Z,124.03
2022-11-29T17:49:22.666Z,61.95
2022-11-29T17:51:53.454Z,84.18
2022-11-29T17:54:29.960Z,97.53
2022-11-29T17:56:57.663Z,118.45
2022-11-29T17:59:25.799Z,88.73
2022-11-29T18:01:58.543Z,106.97
2022-11-29T18:04:25.780Z,63.20
2022-11-29T18:06:54.099Z,107.57
2022-11-29T18:09:43.647Z,92.75
2022-11-29T18:12:16.461Z,109.23
2022-11-29T18:14:46.373Z,118.13
2022-11-29T18:17:31.180Z,45.47
2022-11-29T18:20:17.223Z,114.47
2022-11-29T18:23:07.694Z,86.70
2022-11-29T18:32:40.395Z,121.50
2022-11-29T18:39:02.953Z,71.13
2022-11-29T18:41:30.988Z,37.57
2022-11-29T18:43:59.780Z,33.08
2022-11-29T18:46:32.487Z,27.30
2022-11-29T18:49:01.243Z,37.80
2022-11-29T18:51:29.712Z,39.78
2022-11-29T18:53:57.598Z,36.47
2022-11-29T18:56:25.732Z,43.58
2022-11-29T18:58:58.254Z,51.50
2022-11-29T19:01:27.734Z,28.83
2022-11-29T19:03:56.632Z,20.17
2022-11-29T19:06:25.929Z,25.87
2022-11-29T19:09:00.551Z,19.20
2022-11-29T19:14:12.093Z,18.63
2022-11-29T19:18:00.112Z,17.38
2022-11-29T19:20:04.513Z,23.10
2022-11-29T19:23:00.593Z,18.20
2022-11-29T19:25:34.871Z,16.15
2022-11-29T19:28:14.297Z,18.65
2022-11-29T19:30:50.164Z,19.65
2022-11-29T19:33:17.647Z,18.00
2022-11-29T19:35:45.037Z,17.20
2022-11-29T19:38:12.650Z,17.48
2022-11-29T19:40:40.240Z,19.52
2022-11-29T19:43:07.606Z,19.15
2022-11-29T19:45:35.044Z,17.73
2022-11-29T19:48:02.507Z,18.35
2022-11-29T19:50:29.994Z,18.73
2022-11-29T19:52:57.271Z,18.48
2022-11-29T19:55:25.818Z,18.73
2022-11-29T19:57:55.644Z,17.60
2022-11-29T20:00:23.069Z,15.77
2022-11-29T20:02:50.301Z,15.77
2022-11-29T20:05:17.603Z,16.60
2022-11-29T20:07:44.734Z,15.27
2022-11-29T20:10:12.135Z,15.27
2022-11-29T20:12:39.368Z,19.13
2022-11-29T20:15:06.911Z,15.60
2022-11-29T20:17:34.047Z,18.40
2022-11-29T20:20:01.199Z,29.98
2022-11-29T20:22:28.479Z,16.53
2022-11-29T20:24:56.019Z,20.35
2022-11-29T20:27:23.825Z,13.55
2022-11-29T20:29:51.099Z,15.85
2022-11-29T20:32:18.657Z,15.93
2022-11-29T20:34:45.869Z,16.27
2022-11-29T20:37:21.595Z,16.58
2022-11-29T20:40:01.953Z,18.48
2022-11-29T20:42:40.675Z,17.80
2022-11-29T20:45:10.178Z,18.08
2022-11-29T20:47:38.158Z,16.33
2022-11-29T20:50:05.894Z,20.58
2022-11-29T20:52:41.764Z,16.95
2022-11-29T20:55:12.953Z,18.63
2022-11-29T20:57:40.630Z,18.02
2022-11-29T21:00:10.299Z,19.90
2022-11-29T21:02:37.652Z,20.88
2022-11-29T21:05:05.806Z,17.15
2022-11-29T21:07:39.848Z,22.52
2022-11-29T21:10:09.111Z,16.48
2022-11-29T21:12:39.722Z,19.17
2022-11-29T21:15:07.271Z,18.45
2022-11-29T21:17:34.519Z,23.58
2022-11-29T21:20:02.092Z,53.38
2022-11-29T21:22:41.761Z,26.60
2022-11-29T21:25:14.506Z,22.03
2022-11-29T21:27:43.320Z,17.05
2022-11-29T21:30:17.171Z,19.80
2022-11-29T21:32:44.455Z,21.92
2022-11-29T21:35:11.532Z,18.45
2022-11-29T21:37:38.742Z,19.33
2022-11-29T21:40:07.439Z,15.77
2022-11-29T21:42:34.646Z,16.30
2022-11-29T21:45:03.146Z,20.00
2022-11-29T21:47:41.605Z,18.50
2022-11-29T21:50:09.165Z,15.60
2022-11-29T21:52:36.375Z,16.65
2022-11-29T21:55:03.706Z,18.95
2022-11-29T21:57:31.950Z,20.60
2022-11-29T21:59:59.138Z,22.20
2022-11-29T22:02:26.436Z,21.00
2022-11-29T22:04:53.865Z,21.48
2022-11-29T22:07:21.148Z,23.10
2022-11-29T22:09:48.366Z,18.35
2022-11-29T22:12:33.211Z,18.63
2022-11-29T22:18:28.503Z,18.50
2022-11-29T22:20:55.665Z,17.77
2022-11-29T22:23:22.773Z,20.00
2022-11-29T22:25:49.864Z,22.10
2022-11-29T22:28:18.059Z,22.07
2022-11-29T22:30:45.155Z,20.40
2022-11-29T22:33:13.601Z,17.73
2022-11-29T22:36:01.960Z,19.98
2022-11-29T22:38:29.228Z,17.90
2022-11-29T22:41:00.172Z,21.67
2022-11-29T22:43:27.490Z,18.88
2022-11-29T22:45:54.579Z,19.95
2022-11-29T22:48:23.029Z,17.05
2022-11-29T22:50:50.124Z,20.77
2022-11-29T22:53:17.286Z,17.07
2022-11-29T22:55:44.527Z,20.65
2022-11-29T22:58:11.814Z,19.90
2022-11-29T23:00:44.493Z,21.25
2022-11-29T23:03:13.219Z,22.50
2022-11-29T23:05:41.269Z,19.27
2022-11-29T23:08:08.950Z,19.58
2022-11-29T23:10:37.061Z,21.23
2022-11-29T23:13:05.559Z,19.77
2022-11-29T23:15:34.266Z,20.10
2022-11-29T23:18:01.490Z,19.77
2022-11-29T23:20:28.687Z,21.98
2022-11-29T23:22:55.937Z,18.48
2022-11-29T23:25:23.230Z,19.77
2022-11-29T23:27:57.668Z,23.98
2022-11-29T23:30:28.022Z,22.67
2022-11-29T23:32:57.718Z,20.50
2022-11-29T23:35:25.226Z,23.52
2022-11-29T23:37:52.819Z,22.35
2022-11-29T23:40:37.575Z,20.65
2022-11-29T23:43:05.001Z,21.07
2022-11-29T23:45:32.357Z,25.52
2022-11-29T23:48:08.986Z,25.70
2022-11-29T23:50:36.195Z,25.17
2022-11-29T23:53:03.458Z,22.30
2022-11-29T23:55:30.867Z,25.60
2022-11-29T23:58:00.782Z,21.90
